Castle Hayne, North Carolina
Current Conditions -  °F | °C
As of 10:53 AM on Saturday 20 Dec 2014 (Local Time) from KILM Reporting Station
Light Rain Light Rain  
Wind Chill: 40°   Ceiling: 5000
Heat Index: 44°   Visibility: 7mi
Dew Point: 41°   Wind: 7mph
Humidity: 89%   Direction: 50°NE
Pressure: 30.27"   Gusts: NA
Location:  34.36°N, 77.9°W
Report Text: KILM 201553Z 05006KT 7SM -RA OVC050 07/05 A3027 RMK AO2 RAE00B28 SLP249 P0000 T00670050
Loading
Personal Weather Stations






























Interactive Weather Map New forecast layout! Learn more

10-Day Weather Forecast

Advertisements
Track Severe Weather on mobile